createdAt,value
2017-04-28T00:02:03.451Z,7.3
2017-04-28T00:07:03.483Z,7.3
2017-04-28T00:12:02.714Z,7.3
2017-04-28T00:17:03.698Z,7.3
2017-04-28T00:22:03.629Z,7.3
2017-04-28T00:27:03.462Z,7.3
2017-04-28T00:32:03.616Z,7.3
2017-04-28T00:37:02.766Z,7.3
2017-04-28T00:42:03.450Z,7.2
2017-04-28T00:47:03.178Z,7.3
2017-04-28T00:52:03.583Z,7.3
2017-04-28T00:57:03.287Z,7.2
2017-04-28T01:02:03.267Z,7.3
2017-04-28T01:07:02.928Z,7.2
2017-04-28T01:12:02.939Z,7.2
2017-04-28T01:17:02.894Z,7.1
2017-04-28T01:22:03.938Z,7.1
2017-04-28T01:27:03.055Z,7.0
2017-04-28T01:32:03.007Z,6.8
2017-04-28T01:37:03.062Z,6.8
2017-04-28T01:42:02.953Z,6.8
2017-04-28T01:47:02.909Z,6.9
2017-04-28T01:52:02.674Z,7.0
2017-04-28T01:57:02.692Z,6.9
2017-04-28T02:02:03.494Z,7.0
2017-04-28T02:07:03.048Z,7.0
2017-04-28T02:12:03.217Z,7.0
2017-04-28T02:17:03.006Z,7.0
2017-04-28T02:22:03.306Z,7.0
2017-04-28T02:27:03.076Z,7.0
2017-04-28T02:32:02.987Z,7.1
2017-04-28T02:37:03.044Z,7.0
2017-04-28T02:42:03.203Z,7.1
2017-04-28T02:47:03.477Z,7.1
2017-04-28T02:52:03.023Z,7.1
2017-04-28T02:57:03.241Z,7.1
2017-04-28T03:02:03.516Z,7.1
2017-04-28T03:07:03.019Z,7.2
2017-04-28T03:12:03.280Z,7.2
2017-04-28T03:17:03.568Z,7.2
2017-04-28T03:22:02.946Z,7.2
2017-04-28T03:27:03.114Z,7.2
2017-04-28T03:32:03.402Z,7.1
2017-04-28T03:37:02.714Z,7.1
2017-04-28T03:42:03.042Z,7.0
2017-04-28T03:47:14.261Z,7.0
2017-04-28T03:52:02.831Z,7.1
2017-04-28T03:57:03.139Z,7.1
2017-04-28T04:02:17.145Z,6.9
2017-04-28T04:07:02.847Z,6.9
2017-04-28T04:12:03.341Z,6.6
2017-04-28T04:17:13.815Z,6.6
2017-04-28T04:22:03.018Z,6.5
2017-04-28T04:27:03.542Z,6.7
2017-04-28T04:32:13.280Z,6.6
2017-04-28T04:37:03.412Z,6.7
2017-04-28T04:42:02.707Z,6.9
2017-04-28T04:47:17.614Z,6.9
2017-04-28T04:52:03.566Z,6.9
2017-04-28T04:57:02.893Z,7.0
2017-04-28T05:02:13.449Z,7.1
2017-04-28T05:07:03.254Z,7.1
2017-04-28T05:12:02.824Z,7.2
2017-04-28T05:17:13.684Z,7.3
2017-04-28T05:22:02.877Z,7.3
2017-04-28T05:27:03.266Z,7.4
2017-04-28T05:32:13.718Z,7.4
2017-04-28T05:37:02.837Z,7.5
2017-04-28T05:42:03.183Z,7.7
2017-04-28T05:47:13.886Z,7.6
2017-04-28T05:52:02.658Z,7.8
2017-04-28T05:57:03.039Z,7.8
2017-04-28T06:02:22.924Z,7.9
2017-04-28T06:07:03.398Z,8.1
2017-04-28T06:12:03.091Z,8.0
2017-04-28T06:17:17.871Z,8.2
2017-04-28T06:22:03.489Z,8.3
2017-04-28T06:27:03.013Z,8.3
2017-04-28T06:32:13.581Z,8.4
2017-04-28T06:37:02.836Z,8.6
2017-04-28T06:42:03.232Z,8.7
2017-04-28T06:52:02.703Z,9.2
2017-04-28T06:57:03.120Z,9.2
2017-04-28T07:02:13.566Z,9.4
2017-04-28T07:07:03.450Z,9.9
2017-04-28T07:12:02.950Z,9.8
2017-04-28T07:17:13.845Z,10.1
2017-04-28T07:22:03.040Z,10.4
2017-04-28T07:27:03.324Z,10.7
2017-04-28T07:32:17.512Z,10.7
2017-04-28T07:37:02.834Z,10.7
2017-04-28T07:42:03.255Z,10.5
2017-04-28T07:47:14.005Z,10.5
2017-04-28T07:52:02.972Z,10.5
2017-04-28T07:57:03.372Z,10.5
2017-04-28T08:02:16.499Z,10.8
2017-04-28T08:07:03.320Z,11.3
2017-04-28T08:12:02.807Z,11.7
2017-04-28T08:17:17.220Z,12.0
2017-04-28T08:22:02.866Z,12.1
2017-04-28T08:27:03.794Z,12.1
2017-04-28T08:32:05.539Z,12.4
2017-04-28T08:37:03.340Z,12.9
2017-04-28T08:42:03.554Z,13.9
2017-04-28T08:47:14.082Z,13.9
2017-04-28T08:52:03.095Z,14.5
2017-04-28T08:57:03.462Z,14.8
2017-04-28T09:02:17.085Z,15.6
2017-04-28T09:07:02.976Z,16.3
2017-04-28T09:12:03.674Z,16.3
2017-04-28T09:17:17.494Z,16.2
2017-04-28T09:22:03.502Z,16.4
2017-04-28T09:27:02.901Z,15.9
2017-04-28T09:32:13.660Z,14.6
2017-04-28T09:37:03.345Z,14.6
2017-04-28T09:42:02.702Z,13.7
2017-04-28T09:47:17.052Z,13.4
2017-04-28T09:52:03.484Z,13.5
2017-04-28T09:57:02.883Z,13.4
2017-04-28T10:02:13.626Z,12.4
2017-04-28T10:07:03.491Z,12.4
2017-04-28T10:12:03.033Z,12.4
2017-04-28T10:17:13.794Z,12.9
2017-04-28T10:22:03.392Z,12.9
2017-04-28T10:27:02.806Z,13.7
2017-04-28T10:32:16.794Z,13.8
2017-04-28T10:37:03.393Z,14.4
2017-04-28T10:42:02.770Z,14.3
2017-04-28T10:47:17.094Z,13.8
2017-04-28T10:52:02.978Z,13.8
2017-04-28T10:57:03.407Z,14.3
2017-04-28T11:02:17.094Z,14.9
2017-04-28T11:07:02.898Z,14.5
2017-04-28T11:12:03.414Z,14.5
2017-04-28T11:17:16.743Z,15.3
2017-04-28T11:22:02.992Z,15.2
2017-04-28T11:27:03.496Z,15.2
2017-04-28T11:32:17.072Z,14.9
2017-04-28T11:37:02.799Z,14.8
2017-04-28T11:42:03.199Z,14.5
2017-04-28T11:47:14.033Z,14.6
2017-04-28T11:52:03.457Z,14.5
2017-04-28T11:57:03.365Z,15.4
2017-04-28T12:02:13.049Z,15.6
2017-04-28T12:07:03.265Z,15.6
2017-04-28T12:12:02.777Z,15.6
2017-04-28T12:17:17.995Z,15.3
2017-04-28T12:22:03.594Z,14.9
2017-04-28T12:27:03.136Z,14.5
2017-04-28T12:32:17.824Z,14.5
2017-04-28T12:37:03.439Z,14.5
2017-04-28T12:42:02.856Z,14.5
2017-04-28T12:47:13.657Z,15.2
2017-04-28T12:52:02.961Z,15.2
2017-04-28T12:57:03.321Z,14.9
2017-04-28T13:02:13.101Z,13.8
2017-04-28T13:07:03.542Z,13.8
2017-04-28T13:12:03.370Z,12.6
2017-04-28T13:17:17.588Z,12.2
2017-04-28T13:22:02.841Z,12.1
2017-04-28T13:27:03.220Z,12.0
2017-04-28T13:32:13.746Z,12.0
2017-04-28T13:37:03.218Z,12.3
2017-04-28T13:42:03.500Z,12.5
2017-04-28T13:47:13.379Z,13.1
2017-04-28T13:52:02.623Z,15.3
2017-04-28T13:57:03.518Z,16.2
2017-04-28T14:02:13.077Z,17.0
2017-04-28T14:07:02.982Z,17.0
2017-04-28T14:12:03.504Z,17.0
2017-04-28T14:17:13.472Z,17.1
2017-04-28T14:22:03.098Z,17.0
2017-04-28T14:27:03.410Z,17.3
2017-04-28T14:32:16.789Z,17.3
2017-04-28T14:37:03.390Z,18.2
2017-04-28T14:42:02.678Z,19.8
2017-04-28T14:47:17.111Z,22.9
2017-04-28T14:52:03.258Z,22.8
2017-04-28T14:57:03.525Z,24.6
2017-04-28T15:02:17.514Z,23.7
2017-04-28T15:07:03.085Z,26.2
2017-04-28T15:12:03.506Z,26.2
2017-04-28T15:17:13.543Z,29.1
2017-04-28T15:22:03.458Z,29.1
2017-04-28T15:27:02.856Z,30.4
2017-04-28T15:32:17.851Z,30.8
2017-04-28T15:37:03.400Z,30.7
2017-04-28T15:42:02.756Z,29.9
2017-04-28T15:47:13.562Z,29.8
2017-04-28T15:52:02.837Z,25.4
2017-04-28T15:57:02.755Z,21.8
2017-04-28T16:02:13.417Z,28.3
2017-04-28T16:07:03.445Z,28.3
2017-04-28T16:12:02.929Z,28.8
2017-04-28T16:17:13.785Z,30.0
2017-04-28T16:22:02.984Z,30.6
2017-04-28T16:27:03.450Z,30.8
2017-04-28T16:32:13.299Z,30.9
2017-04-28T16:37:03.308Z,31.1
2017-04-28T16:42:03.472Z,30.0
2017-04-28T16:47:13.357Z,30.0
2017-04-28T16:52:03.535Z,29.2
2017-04-28T16:57:02.885Z,28.9
2017-04-28T17:02:13.671Z,28.8
2017-04-28T17:07:03.279Z,28.3
2017-04-28T17:12:02.833Z,27.0
2017-04-28T17:17:13.761Z,26.1
2017-04-28T17:22:03.532Z,26.0
2017-04-28T17:27:02.942Z,26.2
2017-04-28T17:32:13.661Z,26.3
2017-04-28T17:37:03.294Z,25.4
2017-04-28T17:42:03.560Z,24.8
2017-04-28T17:47:13.560Z,24.6
2017-04-28T17:52:03.550Z,22.6
2017-04-28T17:57:02.899Z,15.8
2017-04-28T18:02:13.914Z,15.6
2017-04-28T18:07:03.307Z,13.1
2017-04-28T18:12:02.924Z,12.5
2017-04-28T18:17:13.792Z,12.4
2017-04-28T18:22:02.740Z,11.5
2017-04-28T18:27:03.064Z,11.5
2017-04-28T18:32:17.670Z,11.1
2017-04-28T18:37:02.792Z,10.7
2017-04-28T18:42:03.282Z,10.0
2017-04-28T18:47:09.869Z,9.6
2017-04-28T18:52:02.816Z,9.5
2017-04-28T18:57:03.112Z,9.0
2017-04-28T19:02:13.874Z,9.0
2017-04-28T19:07:03.065Z,8.5
2017-04-28T19:12:03.473Z,8.5
2017-04-28T19:17:10.488Z,8.1
2017-04-28T19:22:03.294Z,8.0
2017-04-28T19:27:03.619Z,8.0
2017-04-28T19:32:04.239Z,7.8
2017-04-28T19:37:03.298Z,7.7
2017-04-28T19:42:03.545Z,7.5
2017-04-28T19:47:04.796Z,7.4
2017-04-28T19:52:03.123Z,7.4
2017-04-28T19:57:03.369Z,7.4
2017-04-28T20:02:03.643Z,7.1
2017-04-28T20:07:02.998Z,7.1
2017-04-28T20:12:03.412Z,7.0
2017-04-28T20:17:03.736Z,6.9
2017-04-28T20:22:03.085Z,6.9
2017-04-28T20:27:03.313Z,6.7
2017-04-28T20:32:03.575Z,6.6
2017-04-28T20:37:02.950Z,6.5
2017-04-28T20:42:03.010Z,6.4
2017-04-28T20:47:03.206Z,6.4
2017-04-28T20:52:03.596Z,6.3
2017-04-28T20:57:02.952Z,6.1
2017-04-28T21:02:03.188Z,6.0
2017-04-28T21:07:03.614Z,5.7
2017-04-28T21:12:03.065Z,5.7
2017-04-28T21:17:03.309Z,5.6
2017-04-28T21:22:03.653Z,5.5
2017-04-28T21:27:02.978Z,5.4
2017-04-28T21:32:03.202Z,5.5
2017-04-28T21:37:03.472Z,5.4
2017-04-28T21:42:02.706Z,5.2
2017-04-28T21:47:03.082Z,5.1
2017-04-28T21:52:03.217Z,5.0
2017-04-28T21:57:03.486Z,5.0
2017-04-28T22:02:02.937Z,4.9
2017-04-28T22:07:03.037Z,4.9
2017-04-28T22:12:03.335Z,4.9
2017-04-28T22:22:03.295Z,4.8
2017-04-28T22:27:02.821Z,4.7
2017-04-28T22:32:03.478Z,4.8
2017-04-28T22:37:03.119Z,4.8
2017-04-28T22:42:02.748Z,4.8
2017-04-28T22:47:03.276Z,4.8
2017-04-28T22:52:02.906Z,4.7
2017-04-28T22:57:02.740Z,4.7
2017-04-28T23:02:03.404Z,4.6
2017-04-28T23:07:03.069Z,4.8
2017-04-28T23:12:03.330Z,4.7
2017-04-28T23:17:03.218Z,4.8
2017-04-28T23:22:02.835Z,4.8
2017-04-28T23:27:02.819Z,4.8
2017-04-28T23:32:03.688Z,4.9
2017-04-28T23:37:03.477Z,4.9
2017-04-28T23:42:03.389Z,4.9
2017-04-28T23:47:03.310Z,4.9
2017-04-28T23:52:02.747Z,5.0
2017-04-28T23:57:03.531Z,5.2
